NORTHERN QUEENS  -  Heat Advisory Heat Advisory     Flash Flood Watch Flash Flood Watch     Rip Current Statement Rip Current Statement        SOUTHERN QUEENS  -  Heat Advisory Heat Advisory     Flash Flood Watch Flash Flood Watch     Rip Current Statement Rip Current Statement        NORTHERN NASSAU  -  Flash Flood Watch Flash Flood Watch     Rip Current Statement Rip Current Statement        SOUTHERN NASSAU  -  Flash Flood Watch Flash Flood Watch     Rip Current Statement Rip Current Statement        NORTHEAST SUFFOLK  -  Rip Current Statement Rip Current Statement        NORTHWEST SUFFOLK  -  Rip Current Statement Rip Current Statement        SOUTHEAST SUFFOLK  -  Rip Current Statement Rip Current Statement        SOUTHWEST SUFFOLK  -  Rip Current Statement Rip Current Statement      

Active alerts

Northern Queens
  Details for Northern Queens Heat Advisory  +2 additional alerts
Southern Queens
  Details for Southern Queens Heat Advisory  +2 additional alerts
Northern Nassau
  Details for Northern Nassau Flash Flood Watch  +1 additional alert
Southern Nassau
  Details for Southern Nassau Flash Flood Watch  +1 additional alert
Northwest Suffolk
  Details for Northwest Suffolk Rip Current Statement
Southwest Suffolk
  Details for Southwest Suffolk Rip Current Statement
Northeast Suffolk
  Details for Northeast Suffolk Rip Current Statement
Southeast Suffolk
  Details for Southeast Suffolk Rip Current Statement


WXM80 ListenWXM80 Stop

You find our weather info also at:

UK Metoffice

WeatherCloud

Weather Underground

Northeastern Weather Network

AWEKAS

Citizen Weather Observer Program (CWOP)

HAMweather, WeatherForYou, PWS Weather


Weather Underground History page Text

Daily Summary for June 11, 2016 Units:  English    Metric   Both
« Previous Day
Next Day »
Daily Weekly Monthly Yearly Custom
  High: Low: Average:
Temperature: 86.3 °F 51.3 °F 69.1 °F
Dew Point: 70.5 °F 46.7 °F 58.7 °F
Humidity: 89 % 43 % 71 %
Wind Speed: 6.8 mph 0.0 mph 0.9 mph
Wind Gust: 11.5 mph - -
Wind:- - South
Pressure: 30.02 in 29.66 in -
Precipitation: 0.00 in    
Historical Graphs
 
 
Tabular Data for June 11, 2016
Time Temperature Dew Point Pressure Wind Wind Speed Wind Gust Humidity Rainfall Rate (Hourly)
00:02 60.7 °F 48.9 °F 30.00 in West 1.0 mph 1.2 mph 65 % 0.00 in
00:07 60.7 °F 48.9 °F 30.00 in West 0.4 mph 1.2 mph 65 % 0.00 in
00:17 60.7 °F 48.4 °F 30.00 in WNW 0.3 mph 1.2 mph 64 % 0.00 in
00:23 60.7 °F 49.7 °F 30.00 in West 0.1 mph 2.0 mph 67 % 0.00 in
00:28 60.7 °F 50.1 °F 30.00 in Calm     68 % 0.00 in
00:33 60.5 °F 50.3 °F 30.01 in Calm     69 % 0.00 in
00:43 60.0 °F 49.8 °F 30.01 in West 0.3 mph 1.2 mph 69 % 0.00 in
00:48 59.8 °F 49.2 °F 30.01 in Calm     68 % 0.00 in
00:53 59.5 °F 50.1 °F 30.01 in Calm     71 % 0.00 in
00:58 59.3 °F 49.9 °F 30.02 in West 0.5 mph 1.2 mph 71 % 0.00 in
01:03 59.0 °F 49.6 °F 30.01 in WNW 2.2 mph 3.5 mph 71 % 0.00 in
01:08 58.8 °F 48.3 °F 30.02 in West 2.0 mph 4.0 mph 68 % 0.00 in
01:14 58.7 °F 47.4 °F 30.01 in West 0.6 mph 3.5 mph 66 % 0.00 in
01:19 58.8 °F 47.9 °F 30.01 in Calm   2.3 mph 67 % 0.00 in
01:24 58.8 °F 49.0 °F 30.00 in Calm     70 % 0.00 in
01:29 58.8 °F 49.4 °F 30.00 in Calm     71 % 0.00 in
01:34 58.7 °F 49.3 °F 30.00 in Calm     71 % 0.00 in
01:44 58.4 °F 49.4 °F 30.00 in Calm     72 % 0.00 in
01:49 58.2 °F 49.6 °F 30.00 in Calm     73 % 0.00 in
01:59 57.7 °F 49.1 °F 30.00 in Calm     73 % 0.00 in
02:05 57.5 °F 48.9 °F 29.99 in Calm     73 % 0.00 in
02:10 57.2 °F 49.0 °F 30.00 in Calm     74 % 0.00 in
02:15 56.9 °F 49.1 °F 29.99 in Calm     75 % 0.00 in
02:20 56.7 °F 48.9 °F 29.99 in West 0.9 mph 2.3 mph 75 % 0.00 in
02:25 56.4 °F 48.6 °F 30.00 in West 0.1 mph 1.2 mph 75 % 0.00 in
02:30 56.2 °F 48.4 °F 30.00 in West 0.5 mph 1.2 mph 75 % 0.00 in
02:35 55.9 °F 48.4 °F 30.00 in WSW 2.3 mph 3.5 mph 76 % 0.00 in
02:40 55.7 °F 48.6 °F 30.00 in WSW 0.8 mph 3.5 mph 77 % 0.00 in
02:45 55.7 °F 48.6 °F 30.00 in WSW 0.3 mph 1.2 mph 77 % 0.00 in
02:51 55.7 °F 48.9 °F 30.00 in Calm     78 % 0.00 in
02:56 55.5 °F 49.1 °F 30.00 in Calm     79 % 0.00 in
03:01 55.4 °F 49.0 °F 30.00 in Calm     79 % 0.00 in
03:06 55.3 °F 49.2 °F 30.00 in Calm     80 % 0.00 in
03:11 55.2 °F 49.1 °F 30.00 in WSW 0.4 mph 1.2 mph 80 % 0.00 in
03:16 55.1 °F 49.0 °F 30.00 in Calm   1.2 mph 80 % 0.00 in
03:21 54.9 °F 48.8 °F 30.00 in WSW 0.1 mph 1.2 mph 80 % 0.00 in
03:26 54.8 °F 48.4 °F 30.01 in Calm     79 % 0.00 in
03:31 54.6 °F 48.6 °F 30.01 in Calm     80 % 0.00 in
03:36 54.4 °F 48.4 °F 30.01 in Calm     80 % 0.00 in
03:42 54.2 °F 48.2 °F 30.01 in WSW 1.0 mph 2.3 mph 80 % 0.00 in
03:47 54.0 °F 48.0 °F 30.01 in Calm     80 % 0.00 in
03:52 53.9 °F 48.2 °F 30.01 in WSW 0.4 mph 1.2 mph 81 % 0.00 in
03:57 53.7 °F 48.0 °F 30.01 in WSW 0.2 mph 1.2 mph 81 % 0.00 in
04:02 53.6 °F 47.9 °F 30.01 in Calm     81 % 0.00 in
04:07 53.5 °F 48.1 °F 30.01 in WSW 0.5 mph 3.5 mph 82 % 0.00 in
04:12 53.4 °F 48.0 °F 30.01 in WSW 0.1 mph 1.2 mph 82 % 0.00 in
04:17 53.3 °F 47.9 °F 30.01 in WSW 0.3 mph 1.2 mph 82 % 0.00 in
04:27 53.2 °F 47.8 °F 30.00 in Calm     82 % 0.00 in
04:33 53.2 °F 47.8 °F 30.01 in Calm     82 % 0.00 in
04:38 53.1 °F 47.7 °F 30.01 in Calm     82 % 0.00 in
04:43 53.0 °F 48.0 °F 30.00 in Calm     83 % 0.00 in
04:48 52.9 °F 47.9 °F 30.00 in Calm     83 % 0.00 in
04:53 52.7 °F 48.0 °F 30.00 in Calm     84 % 0.00 in
04:58 52.6 °F 47.9 °F 30.00 in Calm     84 % 0.00 in
05:08 52.3 °F 47.6 °F 29.99 in Calm     84 % 0.00 in
05:13 52.1 °F 47.4 °F 29.99 in Calm     84 % 0.00 in
05:18 52.0 °F 47.0 °F 30.00 in Calm     83 % 0.00 in
05:24 51.9 °F 47.2 °F 30.00 in Calm     84 % 0.00 in
05:29 51.7 °F 47.0 °F 29.99 in Calm     84 % 0.00 in
05:34 51.6 °F 46.9 °F 30.00 in WSW 0.1 mph 1.2 mph 84 % 0.00 in
05:39 51.5 °F 46.8 °F 30.00 in Calm   1.2 mph 84 % 0.00 in
05:44 51.4 °F 46.7 °F 29.99 in Calm     84 % 0.00 in
05:49 51.4 °F 46.7 °F 30.00 in Calm     84 % 0.00 in
05:54 51.3 °F 46.9 °F 30.00 in Calm     85 % 0.00 in
05:59 51.3 °F 46.9 °F 30.00 in WSW 0.1 mph 1.2 mph 85 % 0.00 in
06:04 51.3 °F 46.9 °F 29.99 in WSW 0.3 mph 1.2 mph 85 % 0.00 in
06:09 51.4 °F 47.4 °F 29.99 in Calm     86 % 0.00 in
06:15 51.5 °F 47.5 °F 29.99 in Calm     86 % 0.00 in
06:20 51.7 °F 47.6 °F 29.99 in Calm     86 % 0.00 in
06:30 52.3 °F 48.5 °F 29.99 in WSW 0.1 mph   87 % 0.00 in
06:35 52.6 °F 48.8 °F 29.99 in Calm     87 % 0.00 in
06:40 53.0 °F 49.5 °F 29.99 in Calm     88 % 0.00 in
06:45 53.5 °F 50.0 °F 29.99 in Calm     88 % 0.00 in
06:50 54.2 °F 51.0 °F 29.99 in Calm     89 % 0.00 in
06:55 54.7 °F 51.2 °F 29.99 in Calm     88 % 0.00 in
07:00 55.3 °F 51.2 °F 29.99 in Calm     86 % 0.00 in
07:06 55.9 °F 50.8 °F 29.99 in Calm     83 % 0.00 in
07:11 56.9 °F 52.1 °F 29.99 in Calm     84 % 0.00 in
07:21 59.7 °F 54.9 °F 29.99 in Calm     84 % 0.00 in
07:26 60.6 °F 55.1 °F 29.99 in Calm     82 % 0.00 in
07:31 61.6 °F 55.4 °F 29.99 in Calm     80 % 0.00 in
07:36 62.4 °F 55.4 °F 29.99 in Calm     78 % 0.00 in
07:41 62.9 °F 55.9 °F 29.99 in WSW 0.6 mph 2.3 mph 78 % 0.00 in
07:46 63.3 °F 55.6 °F 29.99 in Calm     76 % 0.00 in
07:51 63.6 °F 55.5 °F 29.98 in Calm     75 % 0.00 in
07:57 63.9 °F 54.3 °F 29.97 in Calm     71 % 0.00 in
08:02 64.1 °F 53.3 °F 29.97 in North 0.5 mph 2.3 mph 68 % 0.00 in
08:07 64.3 °F 54.7 °F 29.97 in Calm   1.2 mph 71 % 0.00 in
08:12 64.5 °F 54.9 °F 29.97 in North 1.0 mph 2.3 mph 71 % 0.00 in
08:17 64.6 °F 54.2 °F 29.98 in North 0.5 mph 2.0 mph 69 % 0.00 in
08:22 64.7 °F 55.1 °F 29.98 in North 0.7 mph 2.0 mph 71 % 0.00 in
08:27 64.8 °F 55.6 °F 29.97 in NNE 1.1 mph 3.5 mph 72 % 0.00 in
08:32 65.0 °F 56.1 °F 29.97 in NNE 0.3 mph 2.3 mph 73 % 0.00 in
08:37 65.3 °F 56.0 °F 29.97 in NNE 0.2 mph 2.3 mph 72 % 0.00 in
08:48 65.9 °F 55.8 °F 29.96 in NNE 0.1 mph 1.2 mph 70 % 0.00 in
08:53 66.2 °F 56.5 °F 29.96 in Calm   1.2 mph 71 % 0.00 in
08:58 66.4 °F 56.3 °F 29.95 in Calm     70 % 0.00 in
09:03 66.6 °F 54.5 °F 29.95 in Calm   1.2 mph 65 % 0.00 in
09:08 66.8 °F 52.9 °F 29.95 in South 0.2 mph 1.2 mph 61 % 0.00 in
09:13 67.2 °F 51.9 °F 29.95 in South 1.1 mph 3.0 mph 58 % 0.00 in
09:18 68.2 °F 53.3 °F 29.95 in WSW 2.0 mph 4.6 mph 59 % 0.00 in
09:23 68.8 °F 52.5 °F 29.95 in SSE 1.4 mph 3.5 mph 56 % 0.00 in
09:28 69.4 °F 52.0 °F 29.95 in SE 2.0 mph 3.0 mph 54 % 0.00 in
09:33 70.2 °F 51.2 °F 29.95 in SE 1.8 mph 3.5 mph 51 % 0.00 in
09:39 70.7 °F 53.2 °F 29.94 in WSW 1.7 mph 3.5 mph 54 % 0.00 in
09:44 71.0 °F 53.5 °F 29.94 in West 0.1 mph 1.2 mph 54 % 0.00 in
09:49 71.4 °F 54.9 °F 29.93 in SE 1.1 mph 2.3 mph 56 % 0.00 in
09:54 72.0 °F 52.3 °F 29.93 in SSE 0.7 mph 2.3 mph 50 % 0.00 in
09:59 72.6 °F 54.0 °F 29.93 in SW 0.4 mph 2.3 mph 52 % 0.00 in
10:04 73.5 °F 54.8 °F 29.93 in South 1.9 mph 5.8 mph 52 % 0.00 in
10:09 74.3 °F 53.3 °F 29.92 in SSW 2.8 mph 5.8 mph 48 % 0.00 in
10:14 75.0 °F 52.8 °F 29.92 in SSE 2.8 mph 8.1 mph 46 % 0.00 in
10:19 75.6 °F 52.8 °F 29.92 in SSW 2.9 mph 4.6 mph 45 % 0.00 in
10:24 76.1 °F 52.0 °F 29.91 in SSW 6.8 mph 7.0 mph 43 % 0.00 in
10:35 76.5 °F 53.0 °F 29.91 in South 0.7 mph 3.5 mph 44 % 0.00 in
10:40 76.5 °F 52.3 °F 29.90 in SSE 2.7 mph 8.1 mph 43 % 0.00 in
10:45 76.6 °F 52.4 °F 29.90 in South 1.8 mph 3.5 mph 43 % 0.00 in
10:55 77.0 °F 53.4 °F 29.89 in SSW 5.4 mph 7.0 mph 44 % 0.00 in
11:00 77.0 °F 54.6 °F 29.89 in SSW 2.2 mph 4.0 mph 46 % 0.00 in
11:05 77.3 °F 54.3 °F 29.89 in South 1.5 mph 3.5 mph 45 % 0.00 in
11:10 77.1 °F 54.1 °F 29.88 in South 5.3 mph 8.0 mph 45 % 0.00 in
11:15 76.4 °F 54.1 °F 29.88 in South 2.4 mph 5.8 mph 46 % 0.00 in
11:21 75.9 °F 54.2 °F 29.88 in WSW 5.1 mph 8.1 mph 47 % 0.00 in
11:26 75.6 °F 54.5 °F 29.88 in SSW 2.5 mph 6.9 mph 48 % 0.00 in
11:31 75.4 °F 54.9 °F 29.87 in SSE 2.5 mph 3.5 mph 49 % 0.00 in
11:36 75.2 °F 55.8 °F 29.86 in South 1.4 mph 11.5 mph 51 % 0.00 in
11:41 74.8 °F 56.5 °F 29.86 in SSW 2.8 mph 6.0 mph 53 % 0.00 in
11:46 74.9 °F 58.1 °F 29.85 in South 4.1 mph 11.5 mph 56 % 0.00 in
11:56 75.3 °F 59.0 °F 29.85 in SW 4.6 mph 11.0 mph 57 % 0.00 in
12:01 75.5 °F 59.7 °F 29.84 in SSE 5.3 mph 9.0 mph 58 % 0.00 in
12:06 75.7 °F 60.8 °F 29.83 in South 2.4 mph 3.5 mph 60 % 0.00 in
12:12 75.8 °F 60.9 °F 29.82 in SSE 5.2 mph 11.5 mph 60 % 0.00 in
12:17 75.9 °F 61.9 °F 29.83 in SSW 2.8 mph 6.9 mph 62 % 0.00 in
12:22 75.8 °F 61.8 °F 29.82 in SSE 3.3 mph 6.0 mph 62 % 0.00 in
12:27 75.5 °F 61.6 °F 29.82 in SSE 3.1 mph 6.0 mph 62 % 0.00 in
12:32 75.1 °F 62.1 °F 29.82 in South 2.8 mph 5.0 mph 64 % 0.00 in
12:37 74.8 °F 61.8 °F 29.81 in SSE 1.6 mph 5.0 mph 64 % 0.00 in
12:42 74.1 °F 62.0 °F 29.80 in SE 4.5 mph 5.8 mph 66 % 0.00 in
12:47 73.8 °F 61.7 °F 29.84 in WSW 3.7 mph 4.6 mph 66 % 0.00 in
12:52 73.4 °F 62.2 °F 29.84 in North 5.0 mph 7.0 mph 68 % 0.00 in
12:57 73.1 °F 62.3 °F 29.83 in West 1.2 mph 3.5 mph 69 % 0.00 in
13:03 73.0 °F 62.2 °F 29.82 in SSW 1.0 mph 3.5 mph 69 % 0.00 in
13:08 72.9 °F 62.1 °F 29.83 in SSE 0.3 mph 2.3 mph 69 % 0.00 in
13:13 72.8 °F 62.0 °F 29.82 in SSE 0.4 mph 1.2 mph 69 % 0.00 in
13:18 72.8 °F 62.4 °F 29.81 in SSE 0.3 mph 1.2 mph 70 % 0.00 in
13:23 72.8 °F 62.4 °F 29.81 in SSE 0.4 mph 2.0 mph 70 % 0.00 in
13:28 73.0 °F 63.0 °F 29.81 in South 0.2 mph 1.2 mph 71 % 0.00 in
13:33 73.2 °F 64.0 °F 29.80 in SSE 0.9 mph 2.3 mph 73 % 0.00 in
13:38 73.9 °F 64.3 °F 29.79 in SSE 0.2 mph 3.5 mph 72 % 0.00 in
13:43 74.4 °F 64.4 °F 29.80 in South 1.5 mph 3.5 mph 71 % 0.00 in
13:48 74.8 °F 64.8 °F 29.80 in WSW 1.2 mph 2.0 mph 71 % 0.00 in
13:54 75.1 °F 64.6 °F 29.80 in SW 0.6 mph 4.6 mph 70 % 0.00 in
13:59 75.4 °F 65.3 °F 29.80 in SW 3.6 mph 5.8 mph 71 % 0.00 in
14:04 75.9 °F 65.0 °F 29.80 in WSW 3.2 mph 5.8 mph 69 % 0.00 in
14:09 76.5 °F 65.6 °F 29.79 in SSW 4.9 mph 9.2 mph 69 % 0.00 in
14:14 76.9 °F 65.1 °F 29.79 in WSW 0.3 mph 4.6 mph 67 % 0.00 in
14:19 77.2 °F 65.4 °F 29.79 in Calm     67 % 0.00 in
14:24 77.3 °F 65.1 °F 29.79 in SE 0.9 mph 3.5 mph 66 % 0.00 in
14:29 77.5 °F 66.1 °F 29.78 in WSW 2.0 mph 3.5 mph 68 % 0.00 in
14:34 77.7 °F 65.9 °F 29.78 in South 0.4 mph 3.5 mph 67 % 0.00 in
14:39 77.9 °F 65.6 °F 29.77 in SSW 1.1 mph 3.5 mph 66 % 0.00 in
14:45 78.2 °F 66.8 °F 29.77 in South 0.6 mph 2.3 mph 68 % 0.00 in
14:50 78.5 °F 66.6 °F 29.77 in SSW 0.6 mph 3.5 mph 67 % 0.00 in
14:55 78.7 °F 66.4 °F 29.76 in SSW 0.4 mph 2.3 mph 66 % 0.00 in
15:00 79.0 °F 67.5 °F 29.76 in SSW 2.3 mph 4.6 mph 68 % 0.00 in
15:05 79.2 °F 67.3 °F 29.75 in SSE 1.4 mph 3.5 mph 67 % 0.00 in
15:10 79.4 °F 68.3 °F 29.76 in SW 1.8 mph 3.5 mph 69 % 0.00 in
15:15 79.8 °F 67.9 °F 29.76 in ESE 1.2 mph 3.5 mph 67 % 0.00 in
15:20 80.2 °F 68.2 °F 29.76 in SSW 1.7 mph 3.5 mph 67 % 0.00 in
15:25 80.5 °F 68.5 °F 29.75 in SW 2.6 mph 4.6 mph 67 % 0.00 in
15:31 80.9 °F 68.0 °F 29.75 in SSW 2.6 mph 3.5 mph 65 % 0.00 in
15:36 81.2 °F 69.2 °F 29.75 in SSW 1.2 mph 4.0 mph 67 % 0.00 in
15:41 81.8 °F 68.9 °F 29.75 in ESE 2.6 mph 5.8 mph 65 % 0.00 in
15:46 82.2 °F 68.3 °F 29.74 in SSW 0.4 mph 3.5 mph 63 % 0.00 in
15:51 82.7 °F 68.8 °F 29.74 in WSW 4.4 mph 8.1 mph 63 % 0.00 in
15:56 83.2 °F 69.8 °F 29.74 in SW 0.7 mph 3.5 mph 64 % 0.00 in
16:01 83.8 °F 69.4 °F 29.74 in SSW 2.3 mph 4.6 mph 62 % 0.00 in
16:06 84.3 °F 69.4 °F 29.73 in SW 2.5 mph 4.6 mph 61 % 0.00 in
16:11 84.8 °F 69.9 °F 29.73 in SSE 1.1 mph 3.5 mph 61 % 0.00 in
16:16 85.2 °F 69.7 °F 29.72 in WSW 0.8 mph 9.2 mph 60 % 0.00 in
16:22 85.6 °F 69.6 °F 29.72 in SSW 2.4 mph 5.8 mph 59 % 0.00 in
16:27 86.0 °F 70.5 °F 29.72 in SW 2.8 mph 5.8 mph 60 % 0.00 in
16:32 86.1 °F 69.6 °F 29.72 in SW 3.1 mph 5.8 mph 58 % 0.00 in
16:37 86.2 °F 69.7 °F 29.72 in SW 2.0 mph 8.1 mph 58 % 0.00 in
16:42 86.3 °F 69.3 °F 29.72 in SE 1.5 mph 3.5 mph 57 % 0.00 in
16:47 85.7 °F 70.2 °F 29.71 in SSW 3.1 mph 5.0 mph 60 % 0.00 in
16:52 85.7 °F 69.7 °F 29.72 in Calm   2.3 mph 59 % 0.00 in
16:57 85.7 °F 69.7 °F 29.71 in SE 0.4 mph 2.3 mph 59 % 0.00 in
17:02 85.5 °F 69.0 °F 29.71 in SSE 1.2 mph 4.6 mph 58 % 0.00 in
17:07 85.3 °F 68.8 °F 29.71 in SE 0.7 mph 3.5 mph 58 % 0.00 in
17:13 85.0 °F 68.6 °F 29.71 in SE 1.4 mph 3.5 mph 58 % 0.00 in
17:18 84.7 °F 69.3 °F 29.70 in Calm   1.2 mph 60 % 0.00 in
17:28 84.2 °F 69.3 °F 29.69 in SE 0.9 mph 3.5 mph 61 % 0.00 in
17:33 83.9 °F 69.0 °F 29.69 in SE 3.6 mph 8.1 mph 61 % 0.00 in
17:38 83.7 °F 69.3 °F 29.69 in Calm   1.2 mph 62 % 0.00 in
17:43 83.5 °F 69.1 °F 29.69 in SSE 0.3 mph 1.2 mph 62 % 0.00 in
17:48 83.3 °F 69.4 °F 29.69 in SE 0.1 mph 1.2 mph 63 % 0.00 in
17:53 83.0 °F 69.1 °F 29.68 in SE 0.1 mph 1.2 mph 63 % 0.00 in
17:58 82.7 °F 69.3 °F 29.68 in SE 0.5 mph 3.0 mph 64 % 0.00 in
18:04 82.5 °F 68.6 °F 29.68 in SSE 2.1 mph 4.6 mph 63 % 0.00 in
18:09 82.2 °F 68.8 °F 29.68 in Calm   6.9 mph 64 % 0.00 in
18:14 82.0 °F 69.1 °F 29.68 in SSE 0.3 mph 1.2 mph 65 % 0.00 in
18:19 81.8 °F 68.4 °F 29.68 in SSE 1.0 mph 6.9 mph 64 % 0.00 in
18:24 81.7 °F 68.8 °F 29.68 in SSE 0.5 mph 2.3 mph 65 % 0.00 in
18:29 81.5 °F 68.6 °F 29.68 in SE 0.3 mph 3.0 mph 65 % 0.00 in
18:34 81.4 °F 68.5 °F 29.68 in Calm   1.2 mph 65 % 0.00 in
18:39 81.3 °F 68.9 °F 29.68 in SE 0.7 mph 4.0 mph 66 % 0.00 in
18:44 81.3 °F 68.9 °F 29.68 in SE 0.4 mph 3.5 mph 66 % 0.00 in
18:49 81.2 °F 68.8 °F 29.68 in South 0.3 mph 4.6 mph 66 % 0.00 in
19:00 81.0 °F 68.1 °F 29.67 in SSE 1.7 mph 3.0 mph 65 % 0.00 in
19:05 80.6 °F 67.7 °F 29.67 in SSE 1.6 mph 6.9 mph 65 % 0.00 in
19:15 79.8 °F 67.9 °F 29.66 in South 0.8 mph 3.5 mph 67 % 0.00 in
19:20 79.5 °F 67.6 °F 29.67 in SE 1.2 mph 3.5 mph 67 % 0.00 in
19:25 79.2 °F 67.3 °F 29.67 in SE 2.3 mph 5.8 mph 67 % 0.00 in
19:30 78.8 °F 67.3 °F 29.67 in SE 1.0 mph 4.6 mph 68 % 0.00 in
19:35 78.3 °F 67.3 °F 29.67 in SSE 2.7 mph 8.1 mph 69 % 0.00 in
19:41 77.9 °F 67.3 °F 29.67 in SE 2.2 mph 6.0 mph 70 % 0.00 in
19:46 77.6 °F 67.0 °F 29.67 in SE 0.1 mph 1.2 mph 70 % 0.00 in
19:51 77.4 °F 67.3 °F 29.67 in Calm   4.6 mph 71 % 0.00 in
19:56 77.3 °F 67.2 °F 29.67 in Calm     71 % 0.00 in
20:01 77.2 °F 67.5 °F 29.67 in South 0.3 mph 1.2 mph 72 % 0.00 in
20:06 77.1 °F 67.4 °F 29.67 in SSE 1.2 mph 6.0 mph 72 % 0.00 in
20:11 76.9 °F 67.6 °F 29.67 in SSE 1.1 mph 2.3 mph 73 % 0.00 in
20:16 76.9 °F 67.6 °F 29.67 in SSW 0.3 mph 1.2 mph 73 % 0.00 in
20:21 76.8 °F 67.9 °F 29.67 in Calm   1.2 mph 74 % 0.00 in
20:26 76.8 °F 67.9 °F 29.67 in SSW 0.5 mph 2.3 mph 74 % 0.00 in
20:32 76.7 °F 68.2 °F 29.67 in SSW 0.2 mph 1.2 mph 75 % 0.00 in
20:37 76.7 °F 68.2 °F 29.67 in SW 0.9 mph 2.3 mph 75 % 0.00 in
20:42 76.6 °F 68.5 °F 29.67 in SW 1.1 mph 3.5 mph 76 % 0.00 in
20:47 76.6 °F 68.8 °F 29.68 in SW 0.1 mph 1.2 mph 77 % 0.00 in
20:52 76.4 °F 68.3 °F 29.69 in North 3.1 mph 4.0 mph 76 % 0.00 in
20:57 76.2 °F 68.1 °F 29.68 in Calm     76 % 0.00 in
21:02 75.8 °F 67.3 °F 29.69 in Calm     75 % 0.00 in
21:07 75.4 °F 66.5 °F 29.68 in Calm   2.3 mph 74 % 0.00 in
21:12 74.8 °F 66.3 °F 29.68 in East 0.9 mph 2.3 mph 75 % 0.00 in
21:17 74.3 °F 66.2 °F 29.68 in East 0.5 mph 1.0 mph 76 % 0.00 in
21:23 74.0 °F 66.0 °F 29.68 in Calm     76 % 0.00 in
21:28 73.7 °F 66.0 °F 29.68 in Calm   1.2 mph 77 % 0.00 in
21:33 73.3 °F 65.7 °F 29.68 in Calm     77 % 0.00 in
21:38 72.9 °F 65.6 °F 29.68 in East 0.6 mph 1.2 mph 78 % 0.00 in
21:43 72.5 °F 65.6 °F 29.68 in North 2.0 mph 4.6 mph 79 % 0.00 in
21:48 72.2 °F 65.7 °F 29.69 in Calm     80 % 0.00 in
21:53 71.6 °F 64.7 °F 29.68 in Calm     79 % 0.00 in
21:58 71.0 °F 64.5 °F 29.69 in North 0.4 mph 2.0 mph 80 % 0.00 in
22:03 70.3 °F 63.8 °F 29.69 in NNE 2.2 mph 4.6 mph 80 % 0.00 in
22:08 69.6 °F 63.5 °F 29.70 in NNE 2.0 mph 3.5 mph 81 % 0.00 in
22:14 69.3 °F 63.2 °F 29.70 in Calm   3.5 mph 81 % 0.00 in
22:19 68.8 °F 63.1 °F 29.70 in Calm     82 % 0.00 in
22:24 68.3 °F 62.9 °F 29.70 in NNE 0.7 mph 2.3 mph 83 % 0.00 in
22:34 67.6 °F 62.6 °F 29.70 in Calm   1.2 mph 84 % 0.00 in
22:39 67.4 °F 62.4 °F 29.70 in Calm     84 % 0.00 in
22:44 67.2 °F 62.5 °F 29.71 in Calm     85 % 0.00 in
22:49 66.9 °F 62.6 °F 29.70 in Calm     86 % 0.00 in
22:54 66.7 °F 62.4 °F 29.70 in Calm     86 % 0.00 in
22:59 66.5 °F 62.2 °F 29.70 in Calm     86 % 0.00 in
23:05 66.3 °F 62.3 °F 29.70 in Calm     87 % 0.00 in
23:10 66.1 °F 62.1 °F 29.70 in Calm     87 % 0.00 in
23:15 66.0 °F 62.0 °F 29.70 in Calm     87 % 0.00 in
23:20 65.9 °F 61.9 °F 29.70 in Calm     87 % 0.00 in
23:25 65.8 °F 62.1 °F 29.70 in Calm     88 % 0.00 in
23:30 65.6 °F 61.6 °F 29.70 in Calm     87 % 0.00 in
23:35 65.5 °F 61.9 °F 29.70 in NNE 0.1 mph 1.2 mph 88 % 0.00 in
23:40 65.4 °F 61.8 °F 29.69 in Calm     88 % 0.00 in
23:45 65.3 °F 61.7 °F 29.69 in Calm     88 % 0.00 in
23:50 65.2 °F 61.6 °F 29.70 in Calm     88 % 0.00 in
23:56 65.1 °F 61.5 °F 29.69 in Calm     88 % 0.00 in
Crab Meadow Weather
Compliments of Weather Underground - 2.75 mb

Script developed by  Jim McMurry - jmcmurry@mwt.net Adapted for the template by  Wim van der Kuil - Leuven-Template.eu

Astronomy: Our moon is moving away from the earth at about 3cm per year.